Time;durP1;ratioP1;P1;durP2;ratioP2;P2;SDS_P1;SDS_P2;PMS_P1;PMS_P2;Temp;Humidity;BMP_temperature;BMP_pressure;BME280_temperature;BME280_humidity;BME280_pressure;Samples;Min_cycle;Max_cycle;Signal;HPM_P1;HPM_P2
2021/08/02 00:00:21;;;;;;;25.48;15.27;;;;;;;;;;4994599;28;20041;-71
2021/08/02 00:02:50;;;;;;;23.95;14.18;;;;;;;;;;4998454;28;21040;-71
2021/08/02 00:05:21;;;;;;;24.48;13.20;;;;;;;;;;4995549;28;20124;-72
2021/08/02 00:07:57;;;;;;;25.38;14.15;;;;;;;;;;4994610;28;20080;-72
2021/08/02 00:10:30;;;;;;;21.83;13.63;;;;;;;;;;4992937;28;20057;-76
2021/08/02 00:13:08;;;;;;;20.98;13.27;;;;;;;;;;4986372;28;20424;-71
2021/08/02 00:15:34;;;;;;;23.60;13.65;;;;;;;;;;4994660;28;20053;-71
2021/08/02 00:18:02;;;;;;;23.35;13.75;;;;;;;;;;4998069;28;20570;-76
2021/08/02 00:20:32;;;;;;;23.00;14.63;;;;;;;;;;4983240;28;20053;-72
2021/08/02 00:23:03;;;;;;;22.95;13.23;;;;;;;;;;4999187;28;20045;-72
2021/08/02 00:25:31;;;;;;;22.20;14.48;;;;;;;;;;5007762;28;20508;-73
2021/08/02 00:27:57;;;;;;;21.00;14.20;;;;;;;;;;4991261;28;20112;-71
2021/08/02 00:30:24;;;;;;;20.58;14.75;;;;;;;;;;4993438;28;20111;-71
2021/08/02 00:32:56;;;;;;;19.73;14.30;;;;;;;;;;4993688;28;20156;-74
2021/08/02 00:35:23;;;;;;;20.73;13.25;;;;;;;;;;4994783;28;20053;-71
2021/08/02 00:38:03;;;;;;;30.67;12.80;;;;;;;;;;4994610;28;20057;-71
2021/08/02 00:40:46;;;;;;;20.38;10.55;;;;;;;;;;4995380;28;20048;-75
2021/08/02 00:43:33;;;;;;;18.65;10.80;;;;;;;;;;4992495;28;20054;-70
2021/08/02 00:46:01;;;;;;;17.75;10.90;;;;;;;;;;4979296;28;20033;-70
2021/08/02 00:48:32;;;;;;;15.77;9.48;;;;;;;;;;4988617;28;20052;-71
2021/08/02 00:51:02;;;;;;;16.60;9.80;;;;;;;;;;4992958;28;20164;-75
2021/08/02 00:53:30;;;;;;;17.90;10.18;;;;;;;;;;4993272;28;20665;-71
2021/08/02 00:56:03;;;;;;;18.98;11.88;;;;;;;;;;4993010;28;20049;-76
2021/08/02 00:58:32;;;;;;;19.00;10.90;;;;;;;;;;4991503;28;20080;-71
2021/08/02 01:01:00;;;;;;;19.05;11.40;;;;;;;;;;4992708;28;20076;-72
2021/08/02 01:03:31;;;;;;;20.75;14.13;;;;;;;;;;4993965;28;20152;-72
2021/08/02 01:05:57;;;;;;;29.70;16.75;;;;;;;;;;4998859;28;20077;-70
2021/08/02 01:08:27;;;;;;;24.75;15.90;;;;;;;;;;4997391;28;20049;-71
2021/08/02 01:11:06;;;;;;;24.10;14.90;;;;;;;;;;4994289;28;20179;-70
2021/08/02 01:13:35;;;;;;;25.80;15.60;;;;;;;;;;4989698;28;20538;-71
2021/08/02 01:16:02;;;;;;;;;;;;;;;;;;4963235;28;91659;-71
2021/08/02 01:18:31;;;;;;;28.27;16.27;;;;;;;;;;5008195;28;19948;-72
2021/08/02 01:21:07;;;;;;;30.40;20.70;;;;;;;;;;4993932;28;20392;-72
2021/08/02 01:27:47;;;;;;;38.85;24.60;;;;;;;;;;5015775;27;20455;-71
2021/08/02 01:30:32;;;;;;;40.13;27.92;;;;;;;;;;4830963;28;107189;-70
2021/08/02 01:33:28;;;;;;;42.80;27.45;;;;;;;;;;4961850;28;20560;-70
2021/08/02 01:36:14;;;;;;;44.22;28.90;;;;;;;;;;4911594;28;20058;-71
2021/08/02 01:40:15;;;;;;;43.92;28.25;;;;;;;;;;5096186;27;20408;-71
2021/08/02 01:49:40;;;;;;;37.85;22.08;;;;;;;;;;5063217;27;20433;-69
2021/08/02 01:52:26;;;;;;;30.48;21.17;;;;;;;;;;4993883;28;79925;-70
2021/08/02 02:02:27;;;;;;;35.58;23.08;;;;;;;;;;5118929;27;19924;-70
2021/08/02 02:05:05;;;;;;;38.25;25.70;;;;;;;;;;5056401;27;62223;-70
2021/08/02 02:07:54;;;;;;;41.33;29.60;;;;;;;;;;5097190;28;20089;-73
2021/08/02 02:21:32;;;;;;;32.42;20.38;;;;;;;;;;5075533;27;20179;-75
2021/08/02 02:26:19;;;;;;;27.52;19.10;;;;;;;;;;5059058;27;20783;-73
2021/08/02 02:29:11;;;;;;;29.33;18.30;;;;;;;;;;5056513;28;20052;-73
2021/08/02 02:32:39;;;;;;;29.10;19.23;;;;;;;;;;4971843;27;22913;-71
2021/08/02 02:35:26;;;;;;;28.98;19.70;;;;;;;;;;4975792;28;20052;-71
2021/08/02 02:41:32;;;;;;;22.88;15.10;;;;;;;;;;5079058;27;20773;-73
2021/08/02 02:44:01;;;;;;;24.35;15.75;;;;;;;;;;5078988;28;20461;-73
2021/08/02 02:46:29;;;;;;;23.67;14.90;;;;;;;;;;5079912;28;20032;-74
2021/08/02 02:48:58;;;;;;;24.35;15.57;;;;;;;;;;5076110;28;20082;-73
2021/08/02 02:51:30;;;;;;;27.08;15.10;;;;;;;;;;5079642;28;20036;-73
2021/08/02 02:54:00;;;;;;;21.92;14.02;;;;;;;;;;5044970;28;20077;-73
2021/08/02 02:56:29;;;;;;;20.38;14.65;;;;;;;;;;5061392;28;20434;-76
2021/08/02 02:58:56;;;;;;;26.83;16.33;;;;;;;;;;5079413;28;20399;-74
2021/08/02 03:01:35;;;;;;;22.88;15.73;;;;;;;;;;5061903;28;20445;-74
2021/08/02 03:04:03;;;;;;;27.45;17.63;;;;;;;;;;5053275;28;20110;-72
2021/08/02 03:06:30;;;;;;;26.30;16.92;;;;;;;;;;5078866;28;20471;-72
2021/08/02 03:08:58;;;;;;;26.58;17.13;;;;;;;;;;5078806;28;20036;-74
2021/08/02 03:11:27;;;;;;;24.60;16.92;;;;;;;;;;5061034;28;20044;-76
2021/08/02 03:13:55;;;;;;;28.77;17.70;;;;;;;;;;5078950;28;20044;-74
2021/08/02 03:16:24;;;;;;;25.90;17.42;;;;;;;;;;5079001;28;20074;-73
2021/08/02 03:18:52;;;;;;;28.85;20.13;;;;;;;;;;5061419;28;20127;-72
2021/08/02 03:21:19;;;;;;;33.35;21.60;;;;;;;;;;5079216;28;20534;-72
2021/08/02 03:24:05;;;;;;;47.30;28.48;;;;;;;;;;5078998;28;20064;-73
2021/08/02 03:26:44;;;;;;;47.80;28.90;;;;;;;;;;5078918;28;20040;-73
2021/08/02 03:29:26;;;;;;;35.75;21.35;;;;;;;;;;5061301;28;20055;-73
2021/08/02 03:32:16;;;;;;;34.60;20.15;;;;;;;;;;5061200;28;20036;-74
2021/08/02 03:34:48;;;;;;;39.50;23.48;;;;;;;;;;5078694;28;20170;-72
2021/08/02 03:37:16;;;;;;;39.33;23.65;;;;;;;;;;5044432;28;20048;-72
2021/08/02 03:39:45;;;;;;;36.90;24.08;;;;;;;;;;5059863;28;20510;-73
2021/08/02 03:42:13;;;;;;;51.20;30.40;;;;;;;;;;5061053;28;20510;-72
2021/08/02 03:44:41;;;;;;;51.47;30.73;;;;;;;;;;5078554;28;20051;-73
2021/08/02 03:47:08;;;;;;;36.00;22.75;;;;;;;;;;5078694;28;20100;-73
2021/08/02 03:49:35;;;;;;;37.38;22.40;;;;;;;;;;5079263;28;20581;-72
2021/08/02 03:52:02;;;;;;;32.05;20.50;;;;;;;;;;5026605;28;20076;-72
2021/08/02 03:54:31;;;;;;;32.95;21.38;;;;;;;;;;5015854;28;20483;-73
2021/08/02 03:57:01;;;;;;;30.45;21.35;;;;;;;;;;5025681;28;20076;-74
2021/08/02 03:59:28;;;;;;;32.88;20.05;;;;;;;;;;5024920;28;20467;-73
2021/08/02 04:01:56;;;;;;;34.83;20.33;;;;;;;;;;5007088;28;20446;-72
2021/08/02 04:04:23;;;;;;;31.42;22.60;;;;;;;;;;5007075;28;20092;-74
2021/08/02 04:06:50;;;;;;;28.55;20.00;;;;;;;;;;5024501;28;20037;-77
2021/08/02 04:09:17;;;;;;;26.02;18.52;;;;;;;;;;5025282;28;20053;-73
2021/08/02 04:11:45;;;;;;;32.92;19.02;;;;;;;;;;5024904;28;20045;-73
2021/08/02 04:14:13;;;;;;;29.33;20.45;;;;;;;;;;5007616;28;20107;-74
2021/08/02 04:16:40;;;;;;;30.67;20.15;;;;;;;;;;5025298;28;20140;-73
2021/08/02 04:19:07;;;;;;;30.27;20.17;;;;;;;;;;5024638;28;20033;-72
2021/08/02 04:21:35;;;;;;;26.30;19.08;;;;;;;;;;5025212;28;20049;-74
2021/08/02 04:24:03;;;;;;;26.90;18.65;;;;;;;;;;5025154;28;20053;-72
2021/08/02 04:26:30;;;;;;;29.85;19.80;;;;;;;;;;5025175;28;20048;-73
2021/08/02 04:28:58;;;;;;;32.05;22.77;;;;;;;;;;5006682;28;20060;-73
2021/08/02 04:31:30;;;;;;;33.30;20.45;;;;;;;;;;5025342;28;20125;-73
2021/08/02 04:33:58;;;;;;;37.05;23.27;;;;;;;;;;5024745;28;20547;-74
2021/08/02 04:36:26;;;;;;;34.47;22.73;;;;;;;;;;5024401;28;20073;-72
2021/08/02 04:38:53;;;;;;;34.67;21.75;;;;;;;;;;5007264;28;20048;-71
2021/08/02 04:41:21;;;;;;;31.15;21.17;;;;;;;;;;5024458;28;20096;-72
2021/08/02 04:43:49;;;;;;;28.17;19.20;;;;;;;;;;5023839;28;20045;-73
2021/08/02 04:46:16;;;;;;;32.53;20.63;;;;;;;;;;4991270;28;20091;-73
2021/08/02 04:48:43;;;;;;;31.13;20.35;;;;;;;;;;5024085;28;20053;-73
2021/08/02 04:51:10;;;;;;;27.17;17.75;;;;;;;;;;5024425;28;20049;-74
2021/08/02 04:53:37;;;;;;;35.20;20.50;;;;;;;;;;5024573;28;20064;-73
2021/08/02 04:56:05;;;;;;;33.47;21.20;;;;;;;;;;5006570;28;20041;-73
2021/08/02 04:58:32;;;;;;;33.92;19.80;;;;;;;;;;5024895;28;20041;-72
2021/08/02 05:00:59;;;;;;;36.05;21.42;;;;;;;;;;5006740;28;20060;-73
2021/08/02 05:03:27;;;;;;;32.60;20.05;;;;;;;;;;5005210;28;20062;-73
2021/08/02 05:05:55;;;;;;;33.00;19.75;;;;;;;;;;5024374;28;20120;-72
2021/08/02 05:08:22;;;;;;;32.47;21.00;;;;;;;;;;5024242;28;20049;-71
2021/08/02 05:10:50;;;;;;;33.42;19.77;;;;;;;;;;5023923;28;20049;-73
2021/08/02 05:13:17;;;;;;;32.97;19.35;;;;;;;;;;5024394;28;20091;-75
2021/08/02 05:15:44;;;;;;;34.30;18.63;;;;;;;;;;5005813;28;20438;-72
2021/08/02 05:18:11;;;;;;;34.75;19.90;;;;;;;;;;5024581;28;20115;-72
2021/08/02 05:20:38;;;;;;;36.63;19.40;;;;;;;;;;5034218;28;20441;-72
2021/08/02 05:23:05;;;;;;;33.33;20.17;;;;;;;;;;5043385;28;20052;-73
2021/08/02 05:25:33;;;;;;;33.30;19.73;;;;;;;;;;5026512;28;20533;-72
2021/08/02 05:28:03;;;;;;;33.78;20.17;;;;;;;;;;5006042;28;20408;-72
2021/08/02 05:30:30;;;;;;;29.00;19.10;;;;;;;;;;5022468;28;20495;-71
2021/08/02 05:32:57;;;;;;;32.00;19.13;;;;;;;;;;5022951;28;20046;-71
2021/08/02 05:35:25;;;;;;;65.70;35.05;;;;;;;;;;5006064;28;20056;-72
2021/08/02 05:37:55;;;;;;;47.33;26.88;;;;;;;;;;5023646;28;20046;-74
2021/08/02 05:40:25;;;;;;;38.47;20.90;;;;;;;;;;5022470;28;20057;-72
2021/08/02 05:42:52;;;;;;;32.63;19.88;;;;;;;;;;5024176;28;20033;-71
2021/08/02 05:45:20;;;;;;;35.28;19.90;;;;;;;;;;5005593;28;20145;-72
2021/08/02 05:47:47;;;;;;;31.38;18.52;;;;;;;;;;4990099;28;20033;-71
2021/08/02 05:50:14;;;;;;;37.35;19.20;;;;;;;;;;5005440;28;20044;-71
2021/08/02 05:52:44;;;;;;;34.45;17.58;;;;;;;;;;5023870;28;21916;-72
2021/08/02 05:55:17;;;;;;;34.22;19.10;;;;;;;;;;5022928;28;20407;-75
2021/08/02 05:57:44;;;;;;;34.33;19.40;;;;;;;;;;5022552;28;20427;-75
2021/08/02 06:00:12;;;;;;;37.30;21.05;;;;;;;;;;5022928;28;20045;-73
2021/08/02 06:02:39;;;;;;;37.85;21.23;;;;;;;;;;5023962;28;20048;-72
2021/08/02 06:05:07;;;;;;;37.90;20.35;;;;;;;;;;5023667;28;20034;-72
2021/08/02 06:07:36;;;;;;;35.20;18.88;;;;;;;;;;5022865;28;20053;-72
2021/08/02 06:10:04;;;;;;;39.22;19.80;;;;;;;;;;5022535;28;20052;-71
2021/08/02 06:12:31;;;;;;;40.85;21.00;;;;;;;;;;4989239;28;20048;-74
2021/08/02 06:14:58;;;;;;;41.55;19.80;;;;;;;;;;5022398;28;20056;-72
2021/08/02 06:17:25;;;;;;;35.38;19.23;;;;;;;;;;5022932;28;20099;-72
2021/08/02 06:19:52;;;;;;;38.95;19.83;;;;;;;;;;5023307;28;20458;-72
2021/08/02 06:22:19;;;;;;;36.78;19.52;;;;;;;;;;5023697;28;20049;-71
2021/08/02 06:24:46;;;;;;;40.65;21.15;;;;;;;;;;5005893;28;20034;-72
2021/08/02 06:27:14;;;;;;;42.45;19.17;;;;;;;;;;5023165;28;20049;-72
2021/08/02 06:29:41;;;;;;;40.65;20.27;;;;;;;;;;5023310;28;20518;-76
2021/08/02 06:32:09;;;;;;;45.67;21.13;;;;;;;;;;5022961;28;20038;-71
2021/08/02 06:34:38;;;;;;;46.72;21.65;;;;;;;;;;5005214;28;20049;-73
2021/08/02 06:37:06;;;;;;;40.78;19.17;;;;;;;;;;5023093;28;23086;-71
2021/08/02 06:39:33;;;;;;;40.50;20.55;;;;;;;;;;5022455;28;20124;-72
2021/08/02 06:42:00;;;;;;;42.60;18.42;;;;;;;;;;5005170;28;20449;-72
2021/08/02 06:44:27;;;;;;;41.75;20.98;;;;;;;;;;5020938;28;20671;-71
2021/08/02 06:46:54;;;;;;;43.65;21.50;;;;;;;;;;5021518;28;20084;-71
2021/08/02 06:49:21;;;;;;;45.58;21.17;;;;;;;;;;5022968;28;20408;-72
2021/08/02 06:51:48;;;;;;;47.92;21.17;;;;;;;;;;5005079;28;20068;-71
2021/08/02 06:54:15;;;;;;;46.65;20.98;;;;;;;;;;5021883;28;20411;-71
2021/08/02 06:56:42;;;;;;;50.42;23.15;;;;;;;;;;5021487;28;20033;-72
2021/08/02 06:59:12;;;;;;;52.13;22.15;;;;;;;;;;5004158;28;20443;-75
2021/08/02 07:01:39;;;;;;;46.35;20.42;;;;;;;;;;5022419;28;20508;-72
2021/08/02 07:04:06;;;;;;;43.90;22.92;;;;;;;;;;5022891;28;20041;-74
2021/08/02 07:06:33;;;;;;;54.97;21.67;;;;;;;;;;5021033;28;20088;-72
2021/08/02 07:09:01;;;;;;;55.13;23.23;;;;;;;;;;5022565;28;20057;-74
2021/08/02 07:11:29;;;;;;;52.55;21.10;;;;;;;;;;5021744;28;20049;-72
2021/08/02 07:13:56;;;;;;;54.97;22.05;;;;;;;;;;5022188;28;20034;-75
2021/08/02 07:16:23;;;;;;;49.17;22.33;;;;;;;;;;5022497;28;20037;-73
2021/08/02 07:18:54;;;;;;;48.13;21.98;;;;;;;;;;5021010;28;20061;-74
2021/08/02 07:21:22;;;;;;;61.13;25.02;;;;;;;;;;5022439;28;20411;-75
2021/08/02 07:23:49;;;;;;;67.97;27.80;;;;;;;;;;5022396;28;20103;-72
2021/08/02 07:26:16;;;;;;;69.70;28.77;;;;;;;;;;5023407;28;20065;-72
2021/08/02 07:28:43;;;;;;;73.80;28.80;;;;;;;;;;5024282;28;20052;-72
2021/08/02 07:31:10;;;;;;;60.92;26.60;;;;;;;;;;5026215;28;20504;-76
2021/08/02 07:33:39;;;;;;;60.10;24.02;;;;;;;;;;5026182;28;20467;-72
2021/08/02 07:36:07;;;;;;;58.97;23.08;;;;;;;;;;4991683;28;20049;-72
2021/08/02 07:38:36;;;;;;;61.90;24.40;;;;;;;;;;5025794;28;20041;-72
2021/08/02 07:41:04;;;;;;;59.75;24.00;;;;;;;;;;5007989;28;20530;-72
2021/08/02 07:43:34;;;;;;;56.53;24.98;;;;;;;;;;5024670;28;20144;-72
2021/08/02 07:46:01;;;;;;;61.75;23.55;;;;;;;;;;5025530;28;20048;-73
2021/08/02 07:48:28;;;;;;;58.08;23.67;;;;;;;;;;5025988;28;20042;-72
2021/08/02 07:50:55;;;;;;;56.05;24.13;;;;;;;;;;5008013;28;20045;-72
2021/08/02 07:53:22;;;;;;;62.20;24.13;;;;;;;;;;5025610;28;20049;-73
2021/08/02 07:55:50;;;;;;;58.38;23.83;;;;;;;;;;5025833;28;20044;-72
2021/08/02 07:58:17;;;;;;;64.15;26.17;;;;;;;;;;5007892;28;20068;-72
2021/08/02 08:00:44;;;;;;;60.17;24.60;;;;;;;;;;5007984;28;20045;-73
2021/08/02 08:03:13;;;;;;;53.45;23.20;;;;;;;;;;5008183;28;21144;-72
2021/08/02 08:05:41;;;;;;;55.90;24.38;;;;;;;;;;5007525;28;20042;-72
2021/08/02 08:08:08;;;;;;;54.10;23.13;;;;;;;;;;5024225;28;20120;-75
2021/08/02 08:10:35;;;;;;;56.90;26.13;;;;;;;;;;5007892;28;20041;-71
2021/08/02 08:13:03;;;;;;;48.75;22.63;;;;;;;;;;5024987;28;20049;-73
2021/08/02 08:15:30;;;;;;;57.00;24.90;;;;;;;;;;5025954;28;20034;-73
2021/08/02 08:17:57;;;;;;;52.55;24.15;;;;;;;;;;5025186;28;20037;-71
2021/08/02 08:20:25;;;;;;;53.25;22.98;;;;;;;;;;4991686;28;20473;-72
2021/08/02 08:22:53;;;;;;;55.15;23.10;;;;;;;;;;5007240;28;20030;-71
2021/08/02 08:25:20;;;;;;;50.67;22.83;;;;;;;;;;5025155;28;20408;-72
2021/08/02 08:27:49;;;;;;;55.15;23.15;;;;;;;;;;5023770;28;20112;-71
2021/08/02 08:30:18;;;;;;;55.03;22.75;;;;;;;;;;5025020;28;20084;-72
2021/08/02 08:32:45;;;;;;;55.30;21.63;;;;;;;;;;5023246;28;20049;-72
2021/08/02 08:35:13;;;;;;;52.80;23.17;;;;;;;;;;5025422;28;20053;-71
2021/08/02 08:37:41;;;;;;;55.13;22.27;;;;;;;;;;5006780;28;20057;-72
2021/08/02 08:40:10;;;;;;;52.05;21.85;;;;;;;;;;5024517;28;20049;-72
2021/08/02 08:42:40;;;;;;;58.85;25.08;;;;;;;;;;5007741;28;20076;-71
2021/08/02 08:45:09;;;;;;;51.58;22.48;;;;;;;;;;5024893;28;20044;-72
2021/08/02 08:47:36;;;;;;;56.35;24.50;;;;;;;;;;5023437;28;20038;-72
2021/08/02 08:50:05;;;;;;;48.88;22.85;;;;;;;;;;5007241;28;20037;-72
2021/08/02 08:52:37;;;;;;;54.97;23.80;;;;;;;;;;5021753;28;20045;-72
2021/08/02 08:55:13;;;;;;;50.05;23.85;;;;;;;;;;5024164;28;20037;-74
2021/08/02 08:57:42;;;;;;;48.40;23.20;;;;;;;;;;5024298;28;20044;-76
2021/08/02 09:00:26;;;;;;;45.25;20.27;;;;;;;;;;5006528;28;20038;-72
2021/08/02 09:02:54;;;;;;;43.08;19.65;;;;;;;;;;5023675;28;20041;-75
2021/08/02 09:05:31;;;;;;;48.95;20.92;;;;;;;;;;5024124;28;20439;-73
2021/08/02 09:07:58;;;;;;;47.88;21.13;;;;;;;;;;5024464;28;20037;-72
2021/08/02 09:10:25;;;;;;;36.97;17.58;;;;;;;;;;5028438;28;20050;-71
2021/08/02 09:12:58;;;;;;;43.15;18.02;;;;;;;;;;5028909;28;20461;-71
2021/08/02 09:15:31;;;;;;;38.08;17.20;;;;;;;;;;5033700;28;20068;-71
2021/08/02 09:17:59;;;;;;;38.20;17.08;;;;;;;;;;5025648;28;20045;-71
2021/08/02 09:20:27;;;;;;;37.53;17.65;;;;;;;;;;5034460;28;20045;-72
2021/08/02 09:23:03;;;;;;;36.50;17.27;;;;;;;;;;5030534;28;20040;-71
2021/08/02 09:25:30;;;;;;;35.10;18.38;;;;;;;;;;5043205;28;20094;-71
2021/08/02 09:27:57;;;;;;;38.08;19.48;;;;;;;;;;5027623;28;20083;-72
2021/08/02 09:30:28;;;;;;;37.95;18.75;;;;;;;;;;5015862;28;20046;-71
2021/08/02 09:32:56;;;;;;;31.88;17.05;;;;;;;;;;5028435;28;20512;-71
2021/08/02 09:35:34;;;;;;;31.10;16.13;;;;;;;;;;5016704;28;20060;-71
2021/08/02 09:38:06;;;;;;;35.85;18.98;;;;;;;;;;5028556;28;20132;-71
2021/08/02 09:40:45;;;;;;;37.40;18.70;;;;;;;;;;5023420;28;20072;-71
2021/08/02 09:43:17;;;;;;;34.92;16.63;;;;;;;;;;5022727;28;20049;-72
2021/08/02 09:45:49;;;;;;;35.15;18.17;;;;;;;;;;5013654;28;20064;-72
2021/08/02 09:48:21;;;;;;;39.33;18.15;;;;;;;;;;5025892;28;20064;-72
2021/08/02 09:50:49;;;;;;;40.10;19.42;;;;;;;;;;5043147;28;20144;-71
2021/08/02 09:53:19;;;;;;;35.95;19.98;;;;;;;;;;5041509;28;20124;-77
2021/08/02 09:55:48;;;;;;;38.92;19.77;;;;;;;;;;5010923;28;20049;-73
2021/08/02 09:58:18;;;;;;;38.60;19.35;;;;;;;;;;5016543;28;20032;-72
2021/08/02 10:00:47;;;;;;;38.00;20.75;;;;;;;;;;5042863;28;20056;-71
2021/08/02 10:03:15;;;;;;;37.10;20.85;;;;;;;;;;5038982;28;21977;-72
2021/08/02 10:05:49;;;;;;;40.90;22.27;;;;;;;;;;5041629;28;20095;-72
2021/08/02 10:08:18;;;;;;;37.63;21.02;;;;;;;;;;5041386;28;20060;-72
2021/08/02 10:10:45;;;;;;;37.58;20.00;;;;;;;;;;5023824;28;20540;-72
2021/08/02 10:13:26;;;;;;;38.03;19.90;;;;;;;;;;5036517;28;20041;-77
2021/08/02 10:15:57;;;;;;;34.67;20.20;;;;;;;;;;4990631;28;20102;-78
2021/08/02 10:18:26;;;;;;;36.45;20.02;;;;;;;;;;5010922;28;20040;-78
2021/08/02 10:21:05;;;;;;;38.53;20.13;;;;;;;;;;4948411;28;20750;-78
2021/08/02 10:23:33;;;;;;;39.38;20.52;;;;;;;;;;5011547;28;20085;-78
2021/08/02 10:26:00;;;;;;;34.95;19.35;;;;;;;;;;5000740;28;20049;-79
2021/08/02 10:28:28;;;;;;;37.63;19.30;;;;;;;;;;5017701;28;20069;-78
2021/08/02 10:31:03;;;;;;;35.45;19.13;;;;;;;;;;4990895;28;20072;-78
2021/08/02 10:33:39;;;;;;;33.55;17.80;;;;;;;;;;4997984;28;20037;-77
2021/08/02 10:36:14;;;;;;;35.15;17.20;;;;;;;;;;4981187;28;20045;-78
2021/08/02 10:38:46;;;;;;;32.65;18.15;;;;;;;;;;4999423;28;20507;-78
2021/08/02 10:41:31;;;;;;;32.45;17.10;;;;;;;;;;4982804;28;20131;-78
2021/08/02 10:44:13;;;;;;;30.88;17.50;;;;;;;;;;4993353;28;20060;-78
2021/08/02 10:46:41;;;;;;;31.55;17.75;;;;;;;;;;5001362;28;20127;-78
2021/08/02 10:49:16;;;;;;;34.47;17.15;;;;;;;;;;4988134;28;20044;-78
2021/08/02 10:51:57;;;;;;;32.72;18.50;;;;;;;;;;5011411;28;20037;-78
2021/08/02 10:54:36;;;;;;;30.88;16.73;;;;;;;;;;5006543;28;20507;-78
2021/08/02 10:57:14;;;;;;;34.25;17.60;;;;;;;;;;5014094;28;20045;-78
2021/08/02 10:59:41;;;;;;;32.30;17.92;;;;;;;;;;4984471;28;20075;-78
2021/08/02 11:02:10;;;;;;;36.33;18.08;;;;;;;;;;5002576;28;20072;-78
2021/08/02 11:04:40;;;;;;;;;;;;;;;;;;5011800;28;20100;-77
2021/08/02 11:07:08;;;;;;;34.55;18.73;;;;;;;;;;4979456;28;20694;-78
2021/08/02 11:09:37;;;;;;;34.20;17.48;;;;;;;;;;5002216;28;22444;-78
2021/08/02 11:12:05;;;;;;;35.88;18.90;;;;;;;;;;5011275;28;20040;-78
2021/08/02 11:14:33;;;;;;;36.00;17.38;;;;;;;;;;5017560;28;20134;-77
2021/08/02 11:17:00;;;;;;;40.28;19.23;;;;;;;;;;5020304;28;20053;-78
2021/08/02 11:19:30;;;;;;;37.25;19.65;;;;;;;;;;5016824;28;20068;-78
2021/08/02 11:22:04;;;;;;;39.70;22.75;;;;;;;;;;4996401;28;20041;-78
2021/08/02 11:24:33;;;;;;;41.85;22.33;;;;;;;;;;4991779;28;21743;-77
2021/08/02 11:27:10;;;;;;;39.90;21.50;;;;;;;;;;5007434;28;20044;-77
2021/08/02 11:29:38;;;;;;;41.60;21.60;;;;;;;;;;5016281;28;21353;-76
2021/08/02 11:32:13;;;;;;;38.60;21.60;;;;;;;;;;4998489;28;20399;-77
2021/08/02 11:34:43;;;;;;;45.72;23.50;;;;;;;;;;4997069;28;22214;-78
2021/08/02 11:37:16;;;;;;;43.75;23.17;;;;;;;;;;5014225;28;20324;-77
2021/08/02 11:39:56;;;;;;;40.95;20.42;;;;;;;;;;4986092;28;20479;-77
2021/08/02 11:42:23;;;;;;;38.78;22.23;;;;;;;;;;5020712;28;20512;-77
2021/08/02 11:44:56;;;;;;;41.78;22.08;;;;;;;;;;5000678;28;20064;-77
2021/08/02 11:47:25;;;;;;;42.83;22.90;;;;;;;;;;5007046;28;20051;-78
2021/08/02 11:49:54;;;;;;;39.80;21.00;;;;;;;;;;5002594;28;20103;-79
2021/08/02 11:52:23;;;;;;;44.50;23.20;;;;;;;;;;4992525;28;22367;-78
2021/08/02 11:55:07;;;;;;;43.53;22.95;;;;;;;;;;4998711;28;20041;-77
2021/08/02 11:57:35;;;;;;;46.83;24.35;;;;;;;;;;5016116;28;20041;-79
2021/08/02 12:00:07;;;;;;;44.08;22.98;;;;;;;;;;4999309;28;20064;-78
2021/08/02 12:02:40;;;;;;;44.22;25.33;;;;;;;;;;5017152;28;20075;-78
2021/08/02 12:05:19;;;;;;;44.90;24.00;;;;;;;;;;4986757;28;20049;-78
2021/08/02 12:07:46;;;;;;;43.47;24.48;;;;;;;;;;4934639;28;69254;-76
2021/08/02 12:10:16;;;;;;;38.95;23.25;;;;;;;;;;4992421;28;20064;-76
2021/08/02 12:12:44;;;;;;;43.55;25.30;;;;;;;;;;4991094;28;20049;-77
2021/08/02 12:15:11;;;;;;;;;;;;;;;;;;4996929;28;20176;-76
2021/08/02 12:17:54;;;;;;;39.05;21.88;;;;;;;;;;4980936;28;20376;-77
2021/08/02 12:20:39;;;;;;;42.33;21.83;;;;;;;;;;4994978;28;20160;-76
2021/08/02 12:23:09;;;;;;;38.53;22.25;;;;;;;;;;4995864;28;20047;-76
2021/08/02 12:25:47;;;;;;;39.17;22.98;;;;;;;;;;4982686;28;20041;-78
2021/08/02 12:28:15;;;;;;;43.72;23.73;;;;;;;;;;4995227;28;20064;-76
2021/08/02 12:30:43;;;;;;;39.97;23.08;;;;;;;;;;4978008;28;20073;-77
2021/08/02 12:33:11;;;;;;;;;;;;;;;;;;4959134;28;20455;-77
2021/08/02 12:35:42;;;;;;;36.67;22.02;;;;;;;;;;4966234;28;19932;-77
2021/08/02 12:38:09;;;;;;;39.22;22.08;;;;;;;;;;4992018;28;20033;-77
2021/08/02 12:40:37;;;;;;;34.38;18.85;;;;;;;;;;4994063;28;20049;-77
2021/08/02 12:43:05;;;;;;;28.15;16.20;;;;;;;;;;4993485;28;20172;-77
2021/08/02 12:45:33;;;;;;;25.70;15.27;;;;;;;;;;4976695;28;20050;-73
2021/08/02 12:48:00;;;;;;;24.35;14.35;;;;;;;;;;4994722;28;20512;-72
2021/08/02 12:50:27;;;;;;;22.55;12.48;;;;;;;;;;4993775;28;20045;-76
2021/08/02 12:52:54;;;;;;;21.08;12.15;;;;;;;;;;4994333;28;20049;-73
2021/08/02 12:55:21;;;;;;;25.63;13.07;;;;;;;;;;4985109;28;20536;-72
2021/08/02 12:57:48;;;;;;;24.02;14.05;;;;;;;;;;4993965;28;20042;-75
2021/08/02 13:00:17;;;;;;;22.88;13.00;;;;;;;;;;4992621;28;20042;-73
2021/08/02 13:02:44;;;;;;;24.05;12.38;;;;;;;;;;4980346;28;21125;-78
2021/08/02 13:05:11;;;;;;;28.48;13.60;;;;;;;;;;4974578;28;20514;-77
2021/08/02 13:07:38;;;;;;;21.58;13.07;;;;;;;;;;4975548;28;20045;-78
2021/08/02 13:10:08;;;;;;;20.63;12.75;;;;;;;;;;4980203;28;20119;-78
2021/08/02 13:12:37;;;;;;;18.83;11.30;;;;;;;;;;4948728;28;20580;-77
2021/08/02 13:15:04;;;;;;;;;;;;;;;;;;4969859;28;20495;-77
2021/08/02 13:17:32;;;;;;;25.30;13.68;;;;;;;;;;4985637;28;19974;-76
2021/08/02 13:20:01;;;;;;;30.15;15.05;;;;;;;;;;4957262;28;20045;-77
2021/08/02 13:22:44;;;;;;;31.83;13.75;;;;;;;;;;4970078;28;20114;-78
2021/08/02 13:27:58;;;;;;;23.77;12.98;;;;;;;;;;4991075;28;20128;-77
2021/08/02 13:30:25;;;;;;;26.25;13.90;;;;;;;;;;4981885;28;20037;-78
2021/08/02 13:32:53;;;;;;;24.60;11.90;;;;;;;;;;4977240;28;20077;-77
2021/08/02 13:35:24;;;;;;;17.65;10.82;;;;;;;;;;4976893;28;20149;-77
2021/08/02 13:37:54;;;;;;;18.98;11.30;;;;;;;;;;4991946;28;20045;-79
2021/08/02 13:40:22;;;;;;;21.15;11.32;;;;;;;;;;4986473;28;20184;-78
2021/08/02 13:42:51;;;;;;;20.50;11.10;;;;;;;;;;4978242;28;20076;-76
2021/08/02 13:45:20;;;;;;;23.13;12.45;;;;;;;;;;4987846;28;20185;-77
2021/08/02 13:47:48;;;;;;;20.80;11.77;;;;;;;;;;4987578;28;20061;-77
2021/08/02 13:50:15;;;;;;;19.05;11.02;;;;;;;;;;4987754;28;20499;-77
2021/08/02 13:52:42;;;;;;;19.48;11.68;;;;;;;;;;4980848;28;20582;-77
2021/08/02 13:55:10;;;;;;;21.20;10.93;;;;;;;;;;4992200;28;20041;-76
2021/08/02 13:57:43;;;;;;;19.65;11.05;;;;;;;;;;4973203;28;20873;-77
2021/08/02 14:00:11;;;;;;;19.83;11.20;;;;;;;;;;4953501;28;20826;-76
2021/08/02 14:02:38;;;;;;;17.65;10.75;;;;;;;;;;4972165;28;20466;-77
2021/08/02 14:05:08;;;;;;;23.15;13.65;;;;;;;;;;4985848;28;20049;-77
2021/08/02 14:07:35;;;;;;;24.98;15.65;;;;;;;;;;4988022;28;20513;-75
2021/08/02 14:10:03;;;;;;;27.95;15.73;;;;;;;;;;4972924;28;20835;-75
2021/08/02 14:12:38;;;;;;;25.45;15.73;;;;;;;;;;4991517;28;20034;-75
2021/08/02 14:15:08;;;;;;;24.98;14.13;;;;;;;;;;4989181;28;20054;-76
2021/08/02 14:17:42;;;;;;;24.23;14.93;;;;;;;;;;4978874;28;20528;-76
2021/08/02 14:20:10;;;;;;;22.75;13.60;;;;;;;;;;4965165;28;20054;-77
2021/08/02 14:22:37;;;;;;;21.20;12.18;;;;;;;;;;4976768;28;20578;-76
2021/08/02 14:25:06;;;;;;;22.17;13.18;;;;;;;;;;4970023;28;20540;-76
2021/08/02 14:27:34;;;;;;;25.23;12.55;;;;;;;;;;4970367;28;20050;-78
2021/08/02 14:30:04;;;;;;;19.98;12.90;;;;;;;;;;4963168;28;20807;-76
2021/08/02 14:32:35;;;;;;;21.05;13.18;;;;;;;;;;4959113;28;20125;-76
2021/08/02 14:35:03;;;;;;;26.95;14.57;;;;;;;;;;4975964;28;20081;-76
2021/08/02 14:37:32;;;;;;;24.17;14.15;;;;;;;;;;4991849;28;20880;-77
2021/08/02 14:39:59;;;;;;;;;;;;;;;;;;4977628;28;20046;-77
2021/08/02 14:42:30;;;;;;;24.90;15.60;;;;;;;;;;4978375;28;19929;-77
2021/08/02 14:45:01;;;;;;;24.92;15.95;;;;;;;;;;4975107;28;20050;-78
2021/08/02 14:47:34;;;;;;;23.77;13.50;;;;;;;;;;4979670;28;20038;-78
2021/08/02 14:50:11;;;;;;;25.95;14.10;;;;;;;;;;4990793;28;20094;-77
2021/08/02 14:52:40;;;;;;;21.45;13.23;;;;;;;;;;4972943;28;20427;-77
2021/08/02 14:55:10;;;;;;;23.35;13.68;;;;;;;;;;4974154;28;20054;-77
2021/08/02 14:57:43;;;;;;;25.52;14.10;;;;;;;;;;4974982;28;20143;-78
2021/08/02 15:00:13;;;;;;;24.70;14.38;;;;;;;;;;4980875;28;20564;-78
2021/08/02 15:02:44;;;;;;;25.00;15.05;;;;;;;;;;4989636;28;20046;-73
2021/08/02 15:05:13;;;;;;;22.50;15.07;;;;;;;;;;4961575;28;20409;-74
2021/08/02 15:07:47;;;;;;;28.02;15.30;;;;;;;;;;4992826;28;20531;-74
2021/08/02 15:10:15;;;;;;;24.13;14.15;;;;;;;;;;4978147;28;20472;-73
2021/08/02 15:12:44;;;;;;;21.85;13.48;;;;;;;;;;4991896;28;20069;-73
2021/08/02 15:15:14;;;;;;;20.90;14.73;;;;;;;;;;4975441;28;20042;-72